Pittsburgh, PA (15241)

3:53 AM EDT on September 01, 2014 (GMT -0400)
Mount Lebanon | Change Station
CLOSE
Current Station
Personal Weather Station
Location: Mount Lebanon, PA
Elevation: 1201 ft
Nearby Weather Stations

Elev 1201 ft 40.36 °N, 80.04 °W | Updated 3 seconds ago

Overcast
Overcast
69.4 °F
Feels Like 69.4 °F
N
0.0
Wind Variable Wind from North
Gusts 0.0 mph

Today
High -- | Low -- °F
--% Chance of Precip.
Yesterday
High -- | Low -- °F
Precip. -- in
6:47 AM 7:52 PM
Waxing Crescent, 38% visible
Pressure 30.02 in
Visibility 7.0 miles
Clouds Overcast 900 ft
Dew Point 68 °F
Humidity 94%
Rainfall 0.00 in
Snow Depth Not available.
UV 0 out of 12
Pollen 5.90 out of 12
Ozone Good
PM2.5 Good
Flu Activity Not available.
METAR KAGC 010653Z 20005KT 7SM OVC009 21/19 A3003 RMK AO2 SLP164 T02110194

More Conditions Fewer Conditions

Pressure 30.02 in
Visibility 7.0 miles
Clouds Overcast 900 ft
Dew Point 68 °F
Humidity 94%
Rainfall 0.00 in
Snow Depth Not available.
UV 0 out of 12
Pollen 5.90 out of 12
Ozone Good
PM2.5 Good
Flu Activity Not available.
METAR KAGC 010653Z 20005KT 7SM OVC009 21/19 A3003 RMK AO2 SLP164 T02110194

More Conditions Fewer Conditions

10-Day Weather Forecast

Almanac

Astronomy

Sep. 01, 2014 Rise Set
Actual Time 6:47 AM EDT 7:52 PM EDT
Civil Twilight 6:19 AM EDT 8:19 PM EDT
Nautical Twilight 5:46 AM EDT 8:53 PM EDT
Astronomical Twilight 5:11 AM EDT 9:27 PM EDT
Moon 1:32 PM EDT 11:50 PM EDT
Length of Visible Light 14h 00m
Length of Day
13h 04m
Tomorrow will be 2m 34s shorter.
Waxing Crescent, 38% of the Moon is Illuminated
Today
Waxing Crescent
Sep 2
First Quarter
Sep 8
Full
Sep 15
Last Quarter
Sep 24
New

Today's Extremes

State Highs State Lows

Community

WunderPhotos

Upload Photos

1,749,154 photos uploaded!

Nearby

Air Quality

  Air Quality AQ Index Pollutant
Yesterday Good
PM2.5
Yesterday Good
OZONE
Current Good
PM2.5
Current Good
OZONE
Monday Moderate
PM2.5
Monday Good
OZONE
Tuesday Moderate
PM2.5
Tuesday Good
OZONE
Wednesday Good
PM2.5
Wednesday Good
OZONE

Snow Depth

Station Depth Elevation
No new snow has been reported.

Earthquake Activity

City Distance Mag. Time & Date
No recent earthquake activity has been reported nearby.
Minimum magnitude displayed is 2.5.

Coastal Water Temperatures

Place Temperature
No Stations Reporting

Nearby Weather Stations